Aurelia, Iowa
Current Conditions -  °F | °C
As of 2:55 AM on Wednesday 22 Oct 2014 (Local Time) from KCKP Reporting Station
Broken Clouds Broken Clouds  
Wind Chill: 46°   Ceiling: 5500
Heat Index: 49°   Visibility: 10mi
Dew Point: 44°   Wind: 8mph
Humidity: 82%   Direction: 160°SSE
Pressure: 30.1"   Gusts: NA
Location:  42.71°N, 95.44°W
Report Text: KCKP 220755Z AUTO 16007KT 10SM BKN055 10/07 A3010 RMK AO2 T00960066
Loading
Personal Weather Stations






























Interactive Weather Map
Tropical Storm Tracking
New forecast layout! Learn more

10-Day Weather Forecast

Advertisements
Track Severe Weather on mobile